createdAt,value
2023-04-26T00:02:42.775Z,57.53
2023-04-26T00:06:42.387Z,57.45
2023-04-26T00:09:49.936Z,57.79
2023-04-26T00:12:51.433Z,58.04
2023-04-26T00:15:41.074Z,58.15
2023-04-26T00:19:13.028Z,58.30
2023-04-26T00:21:52.291Z,58.32
2023-04-26T00:25:23.630Z,58.34
2023-04-26T00:28:19.907Z,58.50
2023-04-26T00:31:00.529Z,58.42
2023-04-26T00:34:17.790Z,58.39
2023-04-26T00:37:11.149Z,58.29
2023-04-26T00:40:20.000Z,58.07
2023-04-26T00:43:11.355Z,58.09
2023-04-26T00:50:19.221Z,57.75
2023-04-26T00:53:16.060Z,57.75
2023-04-26T00:56:28.173Z,57.65
2023-04-26T01:02:50.731Z,57.63
2023-04-26T01:05:37.663Z,57.42
2023-04-26T01:08:45.831Z,57.35
2023-04-26T01:11:27.031Z,57.41
2023-04-26T01:14:40.883Z,57.12
2023-04-26T01:17:39.533Z,56.90
2023-04-26T01:20:23.424Z,56.71
2023-04-26T01:23:02.377Z,56.68
2023-04-26T01:25:45.029Z,56.59
2023-04-26T01:28:23.819Z,56.44
2023-04-26T01:31:57.119Z,56.11
2023-04-26T01:35:44.380Z,56.15
2023-04-26T01:39:04.374Z,56.10
2023-04-26T01:42:33.626Z,56.10
2023-04-26T01:46:32.538Z,56.09
2023-04-26T01:49:13.892Z,56.04
2023-04-26T01:56:35.532Z,56.07
2023-04-26T01:59:29.958Z,56.25
2023-04-26T02:02:54.023Z,56.08
2023-04-26T02:05:30.918Z,56.22
2023-04-26T02:08:02.830Z,56.49
2023-04-26T02:11:18.241Z,56.40
2023-04-26T02:14:02.583Z,56.33
2023-04-26T02:16:42.132Z,56.47
2023-04-26T02:19:34.063Z,56.70
2023-04-26T02:22:14.398Z,56.57
2023-04-26T02:25:46.203Z,56.48
2023-04-26T02:28:43.632Z,56.85
2023-04-26T02:31:41.344Z,56.81
2023-04-26T02:34:23.746Z,56.94
2023-04-26T02:37:03.916Z,57.12
2023-04-26T02:40:20.588Z,57.11
2023-04-26T02:44:13.294Z,57.23
2023-04-26T02:48:08.523Z,57.51
2023-04-26T02:50:51.898Z,57.83
2023-04-26T02:54:05.727Z,57.73
2023-04-26T02:56:49.556Z,57.89
2023-04-26T03:03:45.509Z,58.10
2023-04-26T03:06:57.726Z,58.24
2023-04-26T03:10:53.273Z,58.28
2023-04-26T03:13:37.756Z,58.37
2023-04-26T03:17:35.163Z,58.37
2023-04-26T03:20:58.280Z,58.09
2023-04-26T03:27:55.753Z,57.73
2023-04-26T03:30:57.772Z,57.58
2023-04-26T03:33:47.006Z,57.38
2023-04-26T03:37:00.460Z,57.44
2023-04-26T03:40:17.085Z,57.09
2023-04-26T03:42:57.669Z,56.86
2023-04-26T03:45:53.239Z,56.89
2023-04-26T03:49:28.987Z,56.84
2023-04-26T03:52:21.673Z,56.99
2023-04-26T03:55:12.230Z,57.40
2023-04-26T03:57:53.556Z,57.60
2023-04-26T04:01:15.833Z,57.69
2023-04-26T04:04:47.530Z,58.00
2023-04-26T04:07:39.058Z,58.19
2023-04-26T04:11:04.664Z,58.87
2023-04-26T04:13:45.525Z,59.47
2023-04-26T04:16:43.676Z,59.88
2023-04-26T04:20:50.602Z,60.26
2023-04-26T04:23:40.368Z,60.42
2023-04-26T04:27:48.956Z,60.40
2023-04-26T04:46:34.800Z,59.47
2023-04-26T04:49:23.251Z,59.41
2023-04-26T04:53:22.256Z,59.17
2023-04-26T04:56:27.415Z,59.01
2023-04-26T05:03:57.460Z,59.25
2023-04-26T05:06:56.518Z,59.31
2023-04-26T05:10:24.825Z,59.43
2023-04-26T05:13:52.286Z,59.56
2023-04-26T05:16:46.887Z,59.52
2023-04-26T05:19:39.555Z,59.38
2023-04-26T05:22:24.708Z,58.93
2023-04-26T05:25:38.897Z,58.58
2023-04-26T05:30:14.869Z,58.51
2023-04-26T05:33:32.709Z,58.00
2023-04-26T05:37:11.373Z,57.73
2023-04-26T05:39:43.510Z,57.68
2023-04-26T05:42:12.564Z,57.54
2023-04-26T05:44:42.963Z,57.50
2023-04-26T05:47:11.828Z,57.24
2023-04-26T05:49:39.698Z,56.77
2023-04-26T05:52:36.597Z,56.67
2023-04-26T05:55:11.879Z,56.56
2023-04-26T05:57:42.672Z,56.66
2023-04-26T06:00:22.832Z,56.62
2023-04-26T06:02:54.028Z,56.58
2023-04-26T06:05:26.583Z,56.55
2023-04-26T06:07:55.625Z,56.13
2023-04-26T06:10:37.000Z,55.93
2023-04-26T06:13:12.252Z,55.68
2023-04-26T06:15:53.017Z,55.73
2023-04-26T06:18:59.222Z,55.53
2023-04-26T06:21:40.051Z,55.46
2023-04-26T06:24:12.092Z,55.37
2023-04-26T06:26:42.217Z,55.24
2023-04-26T06:29:11.790Z,54.93
2023-04-26T06:31:48.487Z,54.87
2023-04-26T06:34:45.132Z,54.65
2023-04-26T06:37:18.807Z,54.65
2023-04-26T06:39:56.326Z,54.44
2023-04-26T06:42:30.506Z,54.19
2023-04-26T06:45:41.477Z,53.88
2023-04-26T06:48:13.281Z,53.44
2023-04-26T06:50:44.680Z,53.01
2023-04-26T06:53:13.706Z,52.39
2023-04-26T06:55:48.062Z,51.54
2023-04-26T06:58:17.077Z,51.31
2023-04-26T07:00:46.481Z,51.08
2023-04-26T07:03:17.706Z,50.78
2023-04-26T07:05:46.511Z,50.29
2023-04-26T07:08:18.367Z,49.84
2023-04-26T07:10:47.325Z,49.00
2023-04-26T07:13:43.826Z,48.37
2023-04-26T07:21:39.593Z,43.42
2023-04-26T07:24:08.922Z,42.59
2023-04-26T07:26:37.501Z,42.09
2023-04-26T07:29:09.365Z,41.63
2023-04-26T07:31:41.243Z,41.89
2023-04-26T07:34:09.746Z,41.77
2023-04-26T07:36:37.403Z,41.81
2023-04-26T07:39:06.345Z,41.08
2023-04-26T07:41:34.040Z,40.54
2023-04-26T07:44:03.973Z,40.55
2023-04-26T07:46:39.851Z,40.35
2023-04-26T07:49:10.501Z,39.99
2023-04-26T07:51:45.406Z,39.79
2023-04-26T07:54:14.296Z,39.46
2023-04-26T07:56:42.181Z,39.58
2023-04-26T07:59:11.716Z,39.56
2023-04-26T08:01:40.780Z,39.47
2023-04-26T08:04:11.943Z,39.32
2023-04-26T08:06:44.630Z,39.48
2023-04-26T08:09:18.030Z,38.93
2023-04-26T08:11:47.358Z,38.95
2023-04-26T08:14:16.892Z,38.88
2023-04-26T08:16:49.454Z,39.06
2023-04-26T08:19:18.702Z,39.00
2023-04-26T08:21:48.658Z,39.28
2023-04-26T08:24:18.156Z,39.52
2023-04-26T08:26:48.768Z,39.85
2023-04-26T08:29:22.822Z,39.64
2023-04-26T08:31:52.500Z,39.63
2023-04-26T08:34:22.722Z,39.72
2023-04-26T08:36:55.269Z,39.63
2023-04-26T08:39:22.941Z,39.03
2023-04-26T08:41:55.533Z,38.35
2023-04-26T08:44:26.401Z,38.11
2023-04-26T08:47:36.662Z,37.32
2023-04-26T08:50:05.875Z,37.22
2023-04-26T08:52:34.866Z,37.37
2023-04-26T08:55:04.689Z,37.30
2023-04-26T08:57:34.047Z,37.17
2023-04-26T09:00:13.085Z,37.12
2023-04-26T09:02:43.081Z,36.11
2023-04-26T09:05:13.912Z,35.81
2023-04-26T09:07:49.312Z,36.06
2023-04-26T09:10:21.450Z,35.92
2023-04-26T09:12:53.797Z,35.40
2023-04-26T09:15:29.778Z,35.57
2023-04-26T09:17:58.701Z,35.76
2023-04-26T09:20:29.948Z,35.92
2023-04-26T09:23:09.519Z,35.61
2023-04-26T09:25:39.429Z,35.68
2023-04-26T09:28:22.709Z,35.70
2023-04-26T09:30:50.819Z,36.14
2023-04-26T09:33:19.417Z,36.33
2023-04-26T09:35:48.217Z,36.29
2023-04-26T09:38:17.134Z,35.48
2023-04-26T09:40:46.562Z,34.96
2023-04-26T09:43:22.438Z,34.82
2023-04-26T09:45:52.226Z,34.95
2023-04-26T09:48:30.290Z,34.84
2023-04-26T09:51:05.955Z,34.82
2023-04-26T09:53:51.949Z,34.56
2023-04-26T09:56:25.020Z,34.51
2023-04-26T09:59:03.029Z,34.28
2023-04-26T10:01:36.234Z,34.34
2023-04-26T10:04:13.273Z,34.49
2023-04-26T10:06:49.265Z,34.91
2023-04-26T10:09:18.010Z,35.28
2023-04-26T10:12:16.142Z,35.96
2023-04-26T10:14:46.162Z,36.64
2023-04-26T10:17:22.056Z,37.02
2023-04-26T10:19:56.192Z,37.48
2023-04-26T10:22:38.330Z,37.64
2023-04-26T10:25:12.606Z,38.01
2023-04-26T10:28:14.592Z,38.87
2023-04-26T10:31:51.843Z,39.57
2023-04-26T10:34:40.218Z,40.57
2023-04-26T10:49:00.150Z,47.58
2023-04-26T10:55:13.626Z,49.67
2023-04-26T10:57:53.564Z,50.15
2023-04-26T11:01:36.850Z,50.74
2023-04-26T11:04:30.280Z,51.38
2023-04-26T11:07:16.687Z,51.79
2023-04-26T11:10:32.510Z,51.35
2023-04-26T11:14:03.552Z,51.17
2023-04-26T11:16:50.502Z,50.24
2023-04-26T11:25:10.132Z,49.20
2023-04-26T11:28:05.464Z,48.36
2023-04-26T11:31:26.707Z,47.40
2023-04-26T11:34:12.468Z,46.81
2023-04-26T11:37:02.899Z,46.47
2023-04-26T11:40:00.140Z,45.50
2023-04-26T11:43:32.201Z,45.13
2023-04-26T11:46:48.991Z,43.72
2023-04-26T11:50:34.104Z,42.46
2023-04-26T11:53:50.783Z,42.00
2023-04-26T11:56:33.353Z,42.15
2023-04-26T11:59:34.879Z,42.28
2023-04-26T12:02:09.778Z,42.42
2023-04-26T12:05:16.165Z,41.87
2023-04-26T12:09:01.990Z,41.13
2023-04-26T12:11:33.499Z,40.65
2023-04-26T12:14:02.601Z,41.11
2023-04-26T12:16:32.435Z,41.63
2023-04-26T12:19:02.493Z,41.56
2023-04-26T12:21:55.826Z,41.68
2023-04-26T12:24:33.000Z,41.79
2023-04-26T12:27:24.650Z,42.25
2023-04-26T12:30:30.065Z,42.70
2023-04-26T12:33:17.463Z,43.27
2023-04-26T12:40:47.324Z,45.09
2023-04-26T12:44:07.893Z,46.20
2023-04-26T12:47:01.453Z,47.23
2023-04-26T12:49:45.074Z,48.49
2023-04-26T12:52:40.611Z,49.69
2023-04-26T12:59:52.429Z,50.78
2023-04-26T13:07:00.649Z,51.66
2023-04-26T13:09:49.622Z,51.81
2023-04-26T13:12:26.504Z,51.81
2023-04-26T13:15:49.543Z,51.18
2023-04-26T13:18:48.102Z,50.71
2023-04-26T13:22:14.164Z,50.76
2023-04-26T13:24:57.870Z,50.52
2023-04-26T13:28:22.740Z,49.70
2023-04-26T13:31:23.269Z,49.00
2023-04-26T13:47:29.485Z,47.01
2023-04-26T13:50:19.754Z,46.96
2023-04-26T13:53:11.194Z,47.13
2023-04-26T13:57:19.799Z,47.26
2023-04-26T13:59:48.190Z,47.67
2023-04-26T14:02:16.177Z,47.96
2023-04-26T14:04:49.850Z,48.01
2023-04-26T14:07:18.493Z,48.14
2023-04-26T14:09:48.537Z,48.18
2023-04-26T14:12:18.484Z,47.72
2023-04-26T14:14:48.029Z,47.35
2023-04-26T14:17:18.634Z,47.09
2023-04-26T14:19:46.604Z,46.60
2023-04-26T14:22:17.369Z,45.47
2023-04-26T14:24:47.587Z,45.11
2023-04-26T14:27:17.372Z,45.05
2023-04-26T14:29:48.409Z,44.86
2023-04-26T14:32:16.938Z,44.70
2023-04-26T14:34:46.019Z,44.72
2023-04-26T14:37:15.398Z,45.09
2023-04-26T14:40:12.012Z,45.22
2023-04-26T14:42:45.358Z,44.95
2023-04-26T14:45:14.124Z,44.42
2023-04-26T14:47:41.619Z,44.19
2023-04-26T14:50:11.410Z,44.06
2023-04-26T14:52:45.798Z,43.85
2023-04-26T14:55:18.733Z,43.76
2023-04-26T14:57:48.050Z,44.15
2023-04-26T15:00:19.948Z,44.39
2023-04-26T15:02:50.301Z,44.52
2023-04-26T15:05:20.312Z,44.60
2023-04-26T15:07:49.523Z,44.95
2023-04-26T15:10:19.788Z,45.18
2023-04-26T15:12:51.146Z,45.42
2023-04-26T15:15:22.612Z,45.68
2023-04-26T15:17:51.117Z,45.88
2023-04-26T15:35:17.597Z,43.53
2023-04-26T15:38:09.907Z,44.10
2023-04-26T15:41:09.801Z,44.61
2023-04-26T15:44:21.354Z,45.20
2023-04-26T15:47:16.314Z,45.78
2023-04-26T15:50:09.364Z,46.26
2023-04-26T15:57:02.756Z,46.79
2023-04-26T15:59:56.848Z,47.01
2023-04-26T16:07:52.264Z,47.75
2023-04-26T16:11:52.823Z,48.18
2023-04-26T16:18:21.695Z,48.78
2023-04-26T16:21:11.513Z,48.74
2023-04-26T16:24:52.893Z,48.95
2023-04-26T16:28:23.504Z,49.34
2023-04-26T16:31:22.280Z,49.67
2023-04-26T16:34:39.504Z,49.98
2023-04-26T16:37:58.759Z,50.27
2023-04-26T16:41:19.934Z,50.59
2023-04-26T16:44:49.404Z,50.88
2023-04-26T16:48:28.184Z,51.12
2023-04-26T16:51:31.696Z,51.55
2023-04-26T16:55:20.629Z,51.98
2023-04-26T17:07:30.066Z,53.68
2023-04-26T17:24:11.756Z,55.73
2023-04-26T17:45:39.082Z,57.61
2023-04-26T17:53:49.777Z,58.45
2023-04-26T17:56:30.681Z,58.74
2023-04-26T18:18:51.343Z,59.56
2023-04-26T18:28:36.429Z,59.92
2023-04-26T18:40:04.268Z,60.53
2023-04-26T18:47:55.465Z,60.87
2023-04-26T19:11:39.951Z,62.84
2023-04-26T20:30:37.156Z,65.01
2023-04-26T20:34:00.668Z,64.99
2023-04-26T20:38:03.327Z,65.28
2023-04-26T21:15:57.442Z,68.38
2023-04-26T21:19:10.888Z,68.74
2023-04-26T21:22:07.843Z,69.17
2023-04-26T21:26:12.302Z,69.48
2023-04-26T21:30:03.037Z,70.30
2023-04-26T21:33:27.496Z,70.64
2023-04-26T21:36:13.391Z,71.21
2023-04-26T21:39:14.316Z,71.55
2023-04-26T21:43:04.771Z,72.08
2023-04-26T21:46:03.613Z,72.53
2023-04-26T21:49:53.699Z,72.88
2023-04-26T22:01:21.033Z,73.99
2023-04-26T22:08:02.640Z,74.16
2023-04-26T22:10:58.982Z,74.43
2023-04-26T22:13:57.345Z,74.31
2023-04-26T22:17:01.196Z,74.44
2023-04-26T22:19:42.537Z,74.60
2023-04-26T22:22:56.991Z,74.73
2023-04-26T22:30:26.879Z,75.75
2023-04-26T22:33:49.605Z,76.05
2023-04-26T22:36:45.145Z,76.12
2023-04-26T22:39:51.678Z,76.09
2023-04-26T22:46:42.348Z,77.31
2023-04-26T22:50:11.529Z,77.61
2023-04-26T22:53:54.108Z,78.16
2023-04-26T23:05:16.248Z,78.44
2023-04-26T23:13:57.775Z,79.42
2023-04-26T23:16:32.818Z,78.75
2023-04-26T23:19:36.601Z,78.84
2023-04-26T23:22:17.051Z,78.74
2023-04-26T23:24:54.086Z,78.64
2023-04-26T23:27:58.018Z,78.97
2023-04-26T23:30:40.549Z,79.50
2023-04-26T23:33:34.474Z,79.50
2023-04-26T23:36:21.380Z,79.46
2023-04-26T23:39:01.645Z,79.63
2023-04-26T23:41:31.657Z,80.09
2023-04-26T23:44:05.496Z,80.20
2023-04-26T23:47:30.247Z,80.30
2023-04-26T23:50:12.329Z,80.69
2023-04-26T23:52:51.474Z,81.12
2023-04-26T23:56:24.541Z,81.39
2023-04-26T23:59:08.992Z,81.98
